createdAt,value
2017-08-18T00:00:54.133Z,0
2017-08-18T00:03:18.572Z,0
2017-08-18T00:05:43.059Z,0
2017-08-18T00:08:07.532Z,0
2017-08-18T00:10:32.252Z,0
2017-08-18T00:12:56.659Z,0
2017-08-18T00:17:31.544Z,0
2017-08-18T00:19:56.055Z,0
2017-08-18T00:22:20.462Z,0
2017-08-18T00:24:44.829Z,0
2017-08-18T00:27:09.445Z,0
2017-08-18T00:29:33.754Z,0
2017-08-18T00:31:58.074Z,0
2017-08-18T00:34:13.987Z,0
2017-08-18T00:36:38.386Z,0
2017-08-18T00:39:02.750Z,0
2017-08-18T00:41:27.136Z,0
2017-08-18T00:43:51.534Z,0
2017-08-18T00:46:15.949Z,0
2017-08-18T00:48:40.306Z,0
2017-08-18T00:51:04.665Z,0
2017-08-18T00:53:29.077Z,0
2017-08-18T00:55:53.447Z,0
2017-08-18T00:58:17.766Z,0
2017-08-18T01:00:42.153Z,0
2017-08-18T01:03:06.426Z,0
2017-08-18T01:05:31.079Z,0
2017-08-18T01:07:55.206Z,0
2017-08-18T01:10:19.794Z,0
2017-08-18T01:12:44.137Z,0
2017-08-18T01:15:08.493Z,0
2017-08-18T01:17:32.862Z,0
2017-08-18T01:19:48.830Z,0
2017-08-18T01:22:13.238Z,0
2017-08-18T01:24:37.618Z,0
2017-08-18T01:27:02.213Z,0
2017-08-18T01:29:17.979Z,0
2017-08-18T01:31:42.310Z,0
2017-08-18T01:34:06.581Z,0
2017-08-18T01:36:30.827Z,0
2017-08-18T01:38:55.145Z,0
2017-08-18T01:41:19.544Z,0
2017-08-18T01:43:43.949Z,0
2017-08-18T01:46:08.210Z,0
2017-08-18T01:48:32.506Z,0
2017-08-18T01:50:56.943Z,0
2017-08-18T01:53:21.289Z,0
2017-08-18T01:55:45.591Z,0
2017-08-18T02:00:11.324Z,0
2017-08-18T02:02:35.854Z,0
2017-08-18T02:05:00.129Z,0
2017-08-18T02:07:24.380Z,0
2017-08-18T02:09:48.655Z,0
2017-08-18T02:12:12.955Z,0
2017-08-18T02:14:37.226Z,0
2017-08-18T02:17:01.504Z,0
2017-08-18T02:19:17.427Z,0
2017-08-18T02:21:41.676Z,0
2017-08-18T02:24:05.977Z,0
2017-08-18T02:26:30.254Z,0
2017-08-18T02:28:54.537Z,0
2017-08-18T02:31:18.837Z,0
2017-08-18T02:33:43.420Z,0
2017-08-18T02:36:07.607Z,0
2017-08-18T02:38:32.283Z,0
2017-08-18T02:40:56.487Z,0
2017-08-18T02:43:20.801Z,0
2017-08-18T02:45:45.108Z,0
2017-08-18T02:48:10.820Z,0
2017-08-18T02:50:34.781Z,0
2017-08-18T02:52:59.300Z,0
2017-08-18T02:55:23.751Z,0
2017-08-18T02:57:48.156Z,0
2017-08-18T03:00:12.661Z,0
2017-08-18T03:02:36.660Z,0
2017-08-18T03:05:00.771Z,0
2017-08-18T03:07:25.123Z,0
2017-08-18T03:09:49.336Z,0
2017-08-18T03:12:13.993Z,0
2017-08-18T03:14:38.579Z,0
2017-08-18T03:17:03.033Z,0
2017-08-18T03:19:28.129Z,0
2017-08-18T03:21:53.181Z,0
2017-08-18T03:24:17.665Z,0
2017-08-18T03:26:41.931Z,0
2017-08-18T03:29:06.587Z,0
2017-08-18T03:31:31.508Z,0
2017-08-18T03:33:55.917Z,0
2017-08-18T03:36:20.386Z,0
2017-08-18T03:38:44.609Z,0
2017-08-18T03:41:00.513Z,0
2017-08-18T03:43:24.796Z,0
2017-08-18T03:45:40.601Z,0
2017-08-18T03:48:05.603Z,0
2017-08-18T03:50:31.296Z,0
2017-08-18T03:52:55.697Z,0
2017-08-18T03:55:19.863Z,0
2017-08-18T03:57:44.620Z,0
2017-08-18T04:00:09.374Z,0
2017-08-18T04:02:33.539Z,0
2017-08-18T04:04:57.868Z,0
2017-08-18T04:07:22.132Z,0
2017-08-18T04:09:46.780Z,0
2017-08-18T04:12:11.078Z,0
2017-08-18T04:14:35.316Z,0
2017-08-18T04:16:59.661Z,0
2017-08-18T04:19:24.142Z,0
2017-08-18T04:21:48.526Z,0
2017-08-18T04:24:13.848Z,0
2017-08-18T04:26:38.069Z,5
2017-08-18T04:29:02.358Z,5
2017-08-18T04:31:26.579Z,5
2017-08-18T04:33:50.896Z,5
2017-08-18T04:36:15.091Z,10
2017-08-18T04:38:39.519Z,10
2017-08-18T04:41:03.880Z,15
2017-08-18T04:43:28.079Z,15
2017-08-18T04:45:52.469Z,20
2017-08-18T04:48:16.632Z,20
2017-08-18T04:50:40.941Z,20
2017-08-18T04:53:05.541Z,20
2017-08-18T04:55:31.318Z,20
2017-08-18T04:57:56.145Z,20
2017-08-18T05:00:20.626Z,20
2017-08-18T05:02:44.868Z,40
2017-08-18T05:05:09.239Z,30
2017-08-18T05:07:33.672Z,20
2017-08-18T05:09:59.155Z,20
2017-08-18T05:12:23.658Z,20
2017-08-18T05:14:48.169Z,25
2017-08-18T05:17:12.445Z,25
2017-08-18T05:19:37.078Z,25
2017-08-18T05:22:01.536Z,25
2017-08-18T05:24:25.852Z,20
2017-08-18T05:26:50.292Z,20
2017-08-18T05:29:14.679Z,20
2017-08-18T05:31:39.093Z,20
2017-08-18T05:34:03.460Z,25
2017-08-18T05:36:27.952Z,30
2017-08-18T05:38:52.219Z,40
2017-08-18T05:41:16.573Z,45
2017-08-18T05:43:40.878Z,50
2017-08-18T05:46:05.300Z,45
2017-08-18T05:53:53.456Z,75
2017-08-18T05:56:18.422Z,35
2017-08-18T05:58:42.763Z,40
2017-08-18T06:00:58.669Z,45
2017-08-18T06:03:23.052Z,60
2017-08-18T06:05:47.419Z,75
2017-08-18T06:08:03.423Z,80
2017-08-18T06:10:27.836Z,75
2017-08-18T06:12:52.226Z,75
2017-08-18T06:15:16.710Z,70
2017-08-18T06:17:41.206Z,75
2017-08-18T06:20:07.950Z,60
2017-08-18T06:22:32.318Z,55
2017-08-18T06:24:56.709Z,45
2017-08-18T06:27:21.199Z,40
2017-08-18T06:29:45.642Z,40
2017-08-18T06:32:10.105Z,35
2017-08-18T06:34:34.596Z,35
2017-08-18T06:36:58.945Z,35
2017-08-18T06:39:23.458Z,35
2017-08-18T06:46:10.779Z,35
2017-08-18T06:50:02.545Z,30
2017-08-18T06:52:26.911Z,25
2017-08-18T06:54:51.237Z,30
2017-08-18T06:57:15.614Z,25
2017-08-18T06:59:40.003Z,30
2017-08-18T07:02:04.366Z,30
2017-08-18T07:04:28.784Z,35
2017-08-18T07:06:53.193Z,35
2017-08-18T07:09:17.562Z,40
2017-08-18T07:11:41.864Z,50
2017-08-18T07:14:06.218Z,60
2017-08-18T07:16:31.714Z,80
2017-08-18T07:18:56.065Z,100
2017-08-18T07:21:20.558Z,140
2017-08-18T07:23:44.976Z,175
2017-08-18T07:26:23.272Z,170
2017-08-18T07:28:48.128Z,235
2017-08-18T07:33:38.643Z,220
2017-08-18T07:36:03.633Z,170
2017-08-18T07:38:30.461Z,300
2017-08-18T07:40:59.127Z,420
2017-08-18T07:43:25.211Z,475
2017-08-18T07:49:42.417Z,240
2017-08-18T07:54:31.591Z,210
2017-08-18T07:56:50.409Z,185
2017-08-18T08:01:11.101Z,350
2017-08-18T08:03:36.153Z,225
2017-08-18T08:06:01.285Z,175
2017-08-18T08:08:26.305Z,190
2017-08-18T08:10:51.365Z,245
2017-08-18T08:13:16.457Z,200
2017-08-18T08:17:44.234Z,175
2017-08-18T08:20:04.223Z,245
2017-08-18T08:22:14.972Z,200
2017-08-18T08:24:40.056Z,185
2017-08-18T08:27:05.081Z,155
2017-08-18T08:29:36.978Z,165
2017-08-18T08:32:01.914Z,175
2017-08-18T08:34:18.361Z,230
2017-08-18T08:36:43.372Z,220
2017-08-18T08:39:08.378Z,260
2017-08-18T08:41:33.400Z,305
2017-08-18T08:43:58.541Z,655
2017-08-18T08:46:23.773Z,650
2017-08-18T08:48:49.185Z,580
2017-08-18T08:51:14.537Z,530
2017-08-18T08:53:40.017Z,420
2017-08-18T08:56:05.547Z,470
2017-08-18T08:58:31.942Z,355
2017-08-18T09:00:57.209Z,370
2017-08-18T09:03:22.616Z,345
2017-08-18T09:05:48.364Z,315
2017-08-18T09:08:14.250Z,250
2017-08-18T09:10:40.009Z,305
2017-08-18T09:13:05.582Z,310
2017-08-18T09:15:31.335Z,345
2017-08-18T09:17:57.062Z,370
2017-08-18T09:20:22.793Z,325
2017-08-18T09:22:39.982Z,280
2017-08-18T09:25:05.737Z,325
2017-08-18T09:27:31.439Z,225
2017-08-18T09:29:57.198Z,395
2017-08-18T09:32:23.059Z,210
2017-08-18T09:34:48.629Z,220
2017-08-18T09:39:17.647Z,230
2017-08-18T09:41:43.350Z,210
2017-08-18T09:46:19.936Z,140
2017-08-18T09:48:45.685Z,180
2017-08-18T09:51:11.308Z,195
2017-08-18T09:53:36.933Z,190
2017-08-18T09:56:02.487Z,175
2017-08-18T09:58:28.107Z,175
2017-08-18T10:00:53.736Z,170
2017-08-18T10:03:19.462Z,190
2017-08-18T10:05:45.083Z,155
2017-08-18T10:08:10.714Z,165
2017-08-18T10:10:36.426Z,145
2017-08-18T10:13:01.839Z,175
2017-08-18T10:15:27.463Z,135
2017-08-18T10:19:29.486Z,155
2017-08-18T10:23:50.401Z,155
2017-08-18T10:26:07.577Z,145
2017-08-18T10:28:39.984Z,130
2017-08-18T10:31:05.448Z,140
2017-08-18T10:33:30.950Z,140
2017-08-18T10:35:56.647Z,130
2017-08-18T10:38:13.333Z,115
2017-08-18T10:40:38.898Z,125
2017-08-18T10:43:04.040Z,115
2017-08-18T10:45:20.919Z,120
2017-08-18T10:47:46.297Z,120
2017-08-18T10:50:11.645Z,125
2017-08-18T10:52:37.254Z,110
2017-08-18T10:55:02.607Z,115
2017-08-18T10:57:27.962Z,110
2017-08-18T10:59:53.371Z,125
2017-08-18T11:02:18.919Z,130
2017-08-18T11:04:44.312Z,130
2017-08-18T11:07:09.882Z,95
2017-08-18T11:09:35.111Z,130
2017-08-18T11:12:00.375Z,135
2017-08-18T11:16:37.508Z,120
2017-08-18T11:19:04.108Z,125
2017-08-18T11:21:30.471Z,125
2017-08-18T11:23:57.812Z,95
2017-08-18T11:28:30.716Z,105
2017-08-18T11:30:59.987Z,120
2017-08-18T11:33:25.693Z,105
2017-08-18T11:35:50.934Z,105
2017-08-18T11:38:16.430Z,100
2017-08-18T11:40:42.680Z,100
2017-08-18T11:43:13.310Z,90
2017-08-18T11:45:40.347Z,90
2017-08-18T11:48:06.520Z,90
2017-08-18T11:50:31.890Z,90
2017-08-18T11:52:57.128Z,80
2017-08-18T11:55:24.047Z,90
2017-08-18T11:57:49.481Z,90
2017-08-18T12:00:14.936Z,75
2017-08-18T12:06:53.985Z,90
2017-08-18T12:09:19.290Z,85
2017-08-18T12:11:44.739Z,85
2017-08-18T12:14:10.535Z,105
2017-08-18T12:16:36.986Z,120
2017-08-18T12:19:02.370Z,120
2017-08-18T12:21:28.351Z,120
2017-08-18T12:23:53.924Z,115
2017-08-18T12:26:19.088Z,115
2017-08-18T12:28:44.394Z,100
2017-08-18T12:31:09.986Z,110
2017-08-18T12:33:35.251Z,95
2017-08-18T12:36:01.597Z,105
2017-08-18T12:38:28.549Z,115
2017-08-18T12:40:54.461Z,120
2017-08-18T12:43:21.343Z,110
2017-08-18T12:45:47.120Z,115
2017-08-18T12:48:14.006Z,105
2017-08-18T12:50:39.329Z,115
2017-08-18T12:53:05.119Z,110
2017-08-18T12:55:41.563Z,100
2017-08-18T12:58:05.877Z,85
2017-08-18T13:00:31.519Z,110
2017-08-18T13:02:57.254Z,100
2017-08-18T13:05:25.031Z,90
2017-08-18T13:08:01.035Z,95
2017-08-18T13:10:27.663Z,90
2017-08-18T13:12:53.619Z,85
2017-08-18T13:15:19.992Z,95
2017-08-18T13:17:45.972Z,85
2017-08-18T13:20:11.314Z,85
2017-08-18T13:22:36.689Z,75
2017-08-18T13:25:02.342Z,65
2017-08-18T13:27:27.637Z,65
2017-08-18T13:29:53.829Z,45
2017-08-18T13:32:19.664Z,40
2017-08-18T13:34:47.077Z,30
2017-08-18T13:37:12.720Z,30
2017-08-18T13:39:37.916Z,30
2017-08-18T13:42:02.879Z,30
2017-08-18T13:44:28.037Z,20
2017-08-18T13:46:44.633Z,15
2017-08-18T13:49:09.729Z,15
2017-08-18T13:51:34.736Z,15
2017-08-18T13:53:51.454Z,20
2017-08-18T13:56:16.457Z,25
2017-08-18T13:58:41.481Z,40
2017-08-18T14:01:06.432Z,45
2017-08-18T14:03:31.412Z,55
2017-08-18T14:05:57.307Z,45
2017-08-18T14:08:22.157Z,50
2017-08-18T14:10:53.775Z,65
2017-08-18T14:13:18.716Z,80
2017-08-18T14:15:43.526Z,100
2017-08-18T14:18:08.327Z,105
2017-08-18T14:20:33.189Z,105
2017-08-18T14:22:58.033Z,105
2017-08-18T14:27:24.646Z,100
2017-08-18T14:33:54.229Z,105
2017-08-18T14:36:19.236Z,95
2017-08-18T14:38:44.183Z,95
2017-08-18T14:41:13.922Z,95
2017-08-18T14:43:30.356Z,95
2017-08-18T14:45:55.358Z,75
2017-08-18T14:48:20.394Z,60
2017-08-18T14:52:21.790Z,50
2017-08-18T14:54:38.290Z,50
2017-08-18T14:57:03.225Z,45
2017-08-18T14:59:28.213Z,35
2017-08-18T15:01:53.217Z,25
2017-08-18T15:04:21.151Z,10
2017-08-18T15:09:22.401Z,10
2017-08-18T15:11:59.652Z,15
2017-08-18T15:14:24.532Z,25
2017-08-18T15:16:49.280Z,25
2017-08-18T15:19:13.961Z,40
2017-08-18T15:21:38.608Z,45
2017-08-18T15:24:03.290Z,50
2017-08-18T15:26:28.481Z,60
2017-08-18T15:28:54.466Z,60
2017-08-18T15:31:19.049Z,50
2017-08-18T15:33:51.773Z,50
2017-08-18T15:38:31.595Z,65
2017-08-18T15:40:57.179Z,65
2017-08-18T15:47:37.350Z,20
2017-08-18T15:50:03.466Z,15
2017-08-18T15:52:28.050Z,15
2017-08-18T15:54:52.508Z,20
2017-08-18T15:57:43.039Z,15
2017-08-18T16:00:08.782Z,10
2017-08-18T16:02:33.736Z,10
2017-08-18T16:05:00.912Z,5
2017-08-18T16:07:27.149Z,5
2017-08-18T16:09:52.820Z,5
2017-08-18T16:12:16.962Z,5
2017-08-18T16:17:14.224Z,5
2017-08-18T16:19:38.889Z,5
2017-08-18T16:24:04.924Z,5
2017-08-18T16:26:29.433Z,5
2017-08-18T16:28:53.997Z,5
2017-08-18T16:31:18.944Z,5
2017-08-18T16:33:43.452Z,5
2017-08-18T16:36:07.918Z,5
2017-08-18T16:38:23.821Z,0
2017-08-18T16:40:39.843Z,0
2017-08-18T16:47:17.073Z,5
2017-08-18T16:49:33.002Z,0
2017-08-18T16:54:07.922Z,0
2017-08-18T16:56:32.318Z,0
2017-08-18T16:58:56.632Z,0
2017-08-18T17:02:58.141Z,5
2017-08-18T17:05:22.585Z,5
2017-08-18T17:07:47.038Z,5
2017-08-18T17:10:11.484Z,5
2017-08-18T17:12:35.884Z,5
2017-08-18T17:15:00.240Z,5
2017-08-18T17:19:00.496Z,0
2017-08-18T17:21:24.848Z,0
2017-08-18T17:23:49.145Z,0
2017-08-18T17:26:13.505Z,0
2017-08-18T17:28:37.763Z,0
2017-08-18T17:31:02.066Z,0
2017-08-18T17:33:26.366Z,0
2017-08-18T17:35:50.544Z,0
2017-08-18T17:38:14.874Z,0
2017-08-18T17:40:39.175Z,0
2017-08-18T17:43:03.461Z,0
2017-08-18T17:45:27.712Z,5
2017-08-18T17:47:52.031Z,0
2017-08-18T17:50:16.755Z,0
2017-08-18T17:52:41.101Z,0
2017-08-18T17:55:05.380Z,0
2017-08-18T17:57:29.637Z,5
2017-08-18T17:59:53.851Z,5
2017-08-18T18:02:18.042Z,5
2017-08-18T18:04:42.326Z,5
2017-08-18T18:07:06.588Z,5
2017-08-18T18:09:30.878Z,5
2017-08-18T18:11:46.737Z,5
2017-08-18T18:17:58.970Z,5
2017-08-18T18:20:25.062Z,0
2017-08-18T18:22:48.408Z,0
2017-08-18T18:25:12.643Z,0
2017-08-18T18:29:47.386Z,0
2017-08-18T18:32:11.670Z,0
2017-08-18T18:34:35.815Z,0
2017-08-18T18:37:00.220Z,0
2017-08-18T18:39:24.289Z,0
2017-08-18T18:41:40.147Z,0
2017-08-18T18:44:04.353Z,0
2017-08-18T18:46:28.660Z,0
2017-08-18T18:48:53.272Z,0
2017-08-18T18:51:18.075Z,0
2017-08-18T18:53:42.366Z,0
2017-08-18T18:56:06.572Z,0
2017-08-18T18:58:31.031Z,0
2017-08-18T19:00:55.191Z,0
2017-08-18T19:03:19.374Z,0
2017-08-18T19:05:43.556Z,0
2017-08-18T19:08:07.836Z,0
2017-08-18T19:10:32.014Z,0
2017-08-18T19:12:56.244Z,0
2017-08-18T19:15:20.424Z,0
2017-08-18T19:17:36.183Z,0
2017-08-18T19:20:00.554Z,0
2017-08-18T19:22:24.681Z,0
2017-08-18T19:24:48.934Z,0
2017-08-18T19:27:13.156Z,0
2017-08-18T19:29:37.665Z,0
2017-08-18T19:32:01.874Z,0
2017-08-18T19:34:26.082Z,0
2017-08-18T19:36:50.403Z,0
2017-08-18T19:39:14.640Z,0
2017-08-18T19:41:38.850Z,0
2017-08-18T19:45:39.368Z,0
2017-08-18T19:48:03.542Z,0
2017-08-18T19:50:19.206Z,0
2017-08-18T19:52:35.085Z,0
2017-08-18T19:54:58.991Z,0
2017-08-18T19:57:23.112Z,0
2017-08-18T19:59:47.158Z,0
2017-08-18T20:02:11.246Z,0
2017-08-18T20:04:35.412Z,0
2017-08-18T20:06:59.502Z,0
2017-08-18T20:09:23.703Z,0
2017-08-18T20:11:47.802Z,0
2017-08-18T20:14:11.957Z,0
2017-08-18T20:16:36.077Z,0
2017-08-18T20:19:01.270Z,0
2017-08-18T20:21:26.394Z,0
2017-08-18T20:23:50.572Z,0
2017-08-18T20:26:14.699Z,0
2017-08-18T20:28:38.953Z,0
2017-08-18T20:31:03.014Z,0
2017-08-18T20:33:27.091Z,0
2017-08-18T20:35:51.179Z,0
2017-08-18T20:38:15.290Z,0
2017-08-18T20:40:30.944Z,0
2017-08-18T20:42:55.038Z,0
2017-08-18T20:45:19.109Z,0
2017-08-18T20:47:43.229Z,0
2017-08-18T20:50:07.287Z,0
2017-08-18T20:52:31.388Z,0
2017-08-18T20:54:55.494Z,0
2017-08-18T20:57:19.610Z,0
2017-08-18T20:59:43.737Z,0
2017-08-18T21:02:07.931Z,0
2017-08-18T21:05:59.932Z,0
2017-08-18T21:08:24.061Z,0
2017-08-18T21:10:48.186Z,0
2017-08-18T21:15:15.137Z,0
2017-08-18T21:17:39.265Z,0
2017-08-18T21:20:03.402Z,0
2017-08-18T21:22:27.490Z,0
2017-08-18T21:24:51.573Z,0
2017-08-18T21:26:58.776Z,0
2017-08-18T21:29:22.898Z,0
2017-08-18T21:31:30.112Z,0
2017-08-18T21:36:04.661Z,0
2017-08-18T21:38:20.363Z,0
2017-08-18T21:40:44.438Z,0
2017-08-18T21:43:08.499Z,0
2017-08-18T21:45:32.593Z,0
2017-08-18T21:47:48.257Z,0
2017-08-18T21:51:48.211Z,0
2017-08-18T21:54:12.288Z,0
2017-08-18T21:56:36.456Z,0
2017-08-18T21:59:00.545Z,0
2017-08-18T22:01:24.636Z,0
2017-08-18T22:05:59.209Z,0
2017-08-18T22:08:23.345Z,0
2017-08-18T22:10:47.454Z,0
2017-08-18T22:13:11.597Z,0
2017-08-18T22:15:35.768Z,0
2017-08-18T22:17:59.806Z,0
2017-08-18T22:20:23.882Z,0
2017-08-18T22:22:48.004Z,0
2017-08-18T22:25:12.090Z,0
2017-08-18T22:27:36.195Z,0
2017-08-18T22:30:00.302Z,0
2017-08-18T22:32:24.598Z,0
2017-08-18T22:34:48.716Z,0
2017-08-18T22:37:12.831Z,0
2017-08-18T22:43:23.121Z,0
2017-08-18T22:47:48.659Z,0
2017-08-18T22:50:12.780Z,0
2017-08-18T22:54:39.190Z,0
2017-08-18T22:57:03.304Z,0
2017-08-18T22:59:18.973Z,0
2017-08-18T23:01:43.031Z,0
2017-08-18T23:04:07.151Z,0
2017-08-18T23:08:07.480Z,0
2017-08-18T23:10:31.558Z,0
2017-08-18T23:12:55.635Z,0
2017-08-18T23:16:55.381Z,0
2017-08-18T23:19:19.505Z,0
2017-08-18T23:21:43.683Z,0
2017-08-18T23:24:07.542Z,0
2017-08-18T23:28:07.811Z,0
2017-08-18T23:30:31.930Z,0
2017-08-18T23:32:56.457Z,0
2017-08-18T23:38:59.353Z,0
2017-08-18T23:41:23.403Z,0
2017-08-18T23:43:54.039Z,0
2017-08-18T23:46:18.029Z,0
2017-08-18T23:50:18.253Z,0
2017-08-18T23:52:42.348Z,0
2017-08-18T23:55:06.375Z,0
2017-08-18T23:57:30.405Z,0
